createdAt,value
2018-12-04T00:02:21.061Z,6.37
2018-12-04T00:04:49.622Z,4.53
2018-12-04T00:07:18.154Z,5.60
2018-12-04T00:09:46.626Z,6.00
2018-12-04T00:12:15.073Z,5.17
2018-12-04T00:14:43.551Z,6.37
2018-12-04T00:17:11.955Z,7.33
2018-12-04T00:19:40.457Z,4.97
2018-12-04T00:22:08.924Z,5.30
2018-12-04T00:24:37.509Z,4.20
2018-12-04T00:27:05.984Z,5.47
2018-12-04T00:29:34.498Z,8.57
2018-12-04T00:32:02.958Z,5.43
2018-12-04T00:34:31.564Z,4.97
2018-12-04T00:37:00.046Z,6.07
2018-12-04T00:39:28.553Z,4.57
2018-12-04T00:41:57.060Z,3.30
2018-12-04T00:44:25.635Z,3.27
2018-12-04T00:46:54.099Z,2.40
2018-12-04T00:49:22.610Z,1.90
2018-12-04T00:51:51.090Z,2.17
2018-12-04T00:54:19.626Z,2.00
2018-12-04T00:56:48.160Z,2.27
2018-12-04T00:59:16.672Z,4.43
2018-12-04T01:01:45.202Z,4.30
2018-12-04T01:04:13.701Z,1.70
2018-12-04T01:06:42.219Z,3.13
2018-12-04T01:09:11.464Z,3.60
2018-12-04T01:11:39.961Z,2.30
2018-12-04T01:14:08.437Z,4.10
2018-12-04T01:16:36.961Z,3.20
2018-12-04T01:19:05.390Z,2.30
2018-12-04T01:21:33.926Z,3.33
2018-12-04T01:24:02.456Z,3.90
2018-12-04T01:26:30.920Z,7.73
2018-12-04T01:28:59.393Z,5.83
2018-12-04T01:31:27.919Z,6.53
2018-12-04T01:33:56.407Z,4.73
2018-12-04T01:36:24.936Z,8.90
2018-12-04T01:38:53.461Z,5.93
2018-12-04T01:41:22.012Z,8.30
2018-12-04T01:43:50.488Z,8.83
2018-12-04T01:46:19.027Z,3.17
2018-12-04T01:48:47.586Z,6.90
2018-12-04T01:51:16.119Z,5.10
2018-12-04T01:53:44.655Z,4.93
2018-12-04T01:56:13.174Z,6.10
2018-12-04T01:58:41.727Z,10.63
2018-12-04T02:01:10.255Z,11.93
2018-12-04T02:03:38.775Z,4.87
2018-12-04T02:06:07.257Z,10.37
2018-12-04T02:08:35.795Z,8.60
2018-12-04T02:11:04.322Z,8.93
2018-12-04T02:13:32.779Z,9.10
2018-12-04T02:16:01.251Z,6.20
2018-12-04T02:18:29.772Z,7.47
2018-12-04T02:20:58.239Z,8.40
2018-12-04T02:23:27.354Z,8.17
2018-12-04T02:25:55.892Z,7.03
2018-12-04T02:28:28.568Z,6.90
2018-12-04T02:30:57.114Z,7.57
2018-12-04T02:33:25.587Z,7.43
2018-12-04T02:35:54.101Z,7.23
2018-12-04T02:38:22.622Z,6.27
2018-12-04T02:40:51.069Z,9.27
2018-12-04T02:43:19.587Z,7.20
2018-12-04T02:45:48.395Z,6.27
2018-12-04T02:48:16.954Z,8.87
2018-12-04T02:50:45.533Z,6.50
2018-12-04T02:53:14.039Z,6.17
2018-12-04T02:55:42.570Z,8.43
2018-12-04T02:58:11.037Z,7.57
2018-12-04T03:00:39.555Z,5.40
2018-12-04T03:03:08.015Z,9.13
2018-12-04T03:05:36.461Z,10.87
2018-12-04T03:08:04.954Z,9.97
2018-12-04T03:10:33.498Z,10.63
2018-12-04T03:13:02.156Z,9.80
2018-12-04T03:15:30.741Z,7.97
2018-12-04T03:17:59.192Z,15.93
2018-12-04T03:20:27.654Z,7.13
2018-12-04T03:22:56.115Z,10.07
2018-12-04T03:25:24.645Z,9.17
2018-12-04T03:27:53.144Z,9.37
2018-12-04T03:30:21.604Z,7.27
2018-12-04T03:32:50.095Z,6.70
2018-12-04T03:35:18.568Z,6.50
2018-12-04T03:37:47.119Z,7.10
2018-12-04T03:40:15.631Z,7.60
2018-12-04T03:42:44.142Z,7.00
2018-12-04T03:45:12.642Z,9.73
2018-12-04T03:47:41.112Z,7.97
2018-12-04T03:50:09.638Z,11.33
2018-12-04T03:52:38.162Z,11.67
2018-12-04T03:55:06.705Z,10.63
2018-12-04T03:57:35.156Z,6.20
2018-12-04T04:00:03.726Z,7.77
2018-12-04T04:02:32.324Z,9.27
2018-12-04T04:05:00.871Z,6.60
2018-12-04T04:07:29.361Z,10.93
2018-12-04T04:09:57.932Z,10.67
2018-12-04T04:12:26.609Z,9.43
2018-12-04T04:14:55.123Z,11.43
2018-12-04T04:17:23.570Z,15.47
2018-12-04T04:19:52.066Z,9.20
2018-12-04T04:22:20.614Z,9.67
2018-12-04T04:24:49.237Z,11.27
2018-12-04T04:27:17.900Z,11.53
2018-12-04T04:29:46.434Z,15.40
2018-12-04T04:32:14.952Z,11.40
2018-12-04T04:34:43.453Z,11.67
2018-12-04T04:37:11.960Z,13.53
2018-12-04T04:39:40.578Z,11.23
2018-12-04T04:42:09.060Z,16.87
2018-12-04T04:44:37.557Z,15.40
2018-12-04T04:47:06.047Z,14.33
2018-12-04T04:49:34.621Z,12.20
2018-12-04T04:52:03.146Z,14.60
2018-12-04T04:54:31.643Z,16.23
2018-12-04T04:57:00.203Z,15.30
2018-12-04T04:59:28.743Z,15.97
2018-12-04T05:01:57.323Z,13.17
2018-12-04T05:04:25.877Z,15.40
2018-12-04T05:06:54.492Z,13.40
2018-12-04T05:09:23.048Z,13.93
2018-12-04T05:11:51.547Z,11.13
2018-12-04T05:14:19.971Z,10.57
2018-12-04T05:16:48.462Z,13.60
2018-12-04T05:19:17.231Z,12.87
2018-12-04T05:21:45.797Z,13.90
2018-12-04T05:24:14.482Z,9.70
2018-12-04T05:26:42.971Z,9.30
2018-12-04T05:29:11.395Z,15.67
2018-12-04T05:31:42.901Z,10.00
2018-12-04T05:34:16.242Z,10.23
2018-12-04T05:36:44.974Z,9.40
2018-12-04T05:39:18.271Z,11.40
2018-12-04T05:41:52.222Z,10.20
2018-12-04T05:44:20.683Z,9.33
2018-12-04T05:46:49.171Z,9.67
2018-12-04T05:49:22.317Z,6.93
2018-12-04T05:51:50.989Z,12.67
2018-12-04T05:54:27.266Z,9.97
2018-12-04T05:56:56.368Z,8.93
2018-12-04T05:59:27.269Z,9.30
2018-12-04T06:01:56.018Z,11.43
2018-12-04T06:04:27.202Z,13.30
2018-12-04T06:06:56.576Z,15.30
2018-12-04T06:09:25.841Z,9.67
2018-12-04T06:11:58.185Z,11.53
2018-12-04T06:14:28.944Z,8.37
2018-12-04T06:16:57.555Z,9.77
2018-12-04T06:19:26.058Z,9.57
2018-12-04T06:21:54.583Z,10.80
2018-12-04T06:24:35.029Z,10.37
2018-12-04T06:27:03.572Z,9.63
2018-12-04T06:29:38.631Z,9.00
2018-12-04T06:32:07.348Z,13.23
2018-12-04T06:34:48.094Z,8.63
2018-12-04T06:37:16.916Z,12.60
2018-12-04T06:39:45.395Z,14.73
2018-12-04T06:42:13.902Z,9.00
2018-12-04T06:44:46.734Z,18.63
2018-12-04T06:47:13.065Z,11.47
2018-12-04T06:49:41.574Z,9.07
2018-12-04T06:52:10.089Z,12.17
2018-12-04T06:54:38.577Z,9.10
2018-12-04T06:57:07.119Z,10.93
2018-12-04T06:59:35.580Z,12.40
2018-12-04T07:02:04.168Z,8.83
2018-12-04T07:04:32.790Z,7.33
2018-12-04T07:07:01.460Z,7.57
2018-12-04T07:09:29.920Z,7.07
2018-12-04T07:12:02.445Z,10.23
2018-12-04T07:14:29.171Z,7.20
2018-12-04T07:16:57.772Z,5.67
2018-12-04T07:19:26.248Z,9.27
2018-12-04T07:21:54.782Z,10.07
2018-12-04T07:24:23.252Z,4.93
2018-12-04T07:26:51.988Z,14.10
2018-12-04T07:29:20.539Z,9.53
2018-12-04T07:31:49.073Z,8.97
2018-12-04T07:34:17.828Z,6.83
2018-12-04T07:36:46.303Z,6.83
2018-12-04T07:39:14.808Z,10.27
2018-12-04T07:41:43.264Z,13.13
2018-12-04T07:44:11.856Z,10.10
2018-12-04T07:46:40.424Z,11.10
2018-12-04T07:49:08.914Z,7.03
2018-12-04T07:51:37.397Z,6.17
2018-12-04T07:54:05.886Z,8.03
2018-12-04T07:56:34.410Z,8.23
2018-12-04T07:59:02.890Z,9.10
2018-12-04T08:01:31.344Z,11.77
2018-12-04T08:03:59.871Z,5.90
2018-12-04T08:06:28.390Z,11.77
2018-12-04T08:08:56.973Z,9.97
2018-12-04T08:11:25.467Z,8.43
2018-12-04T08:13:53.939Z,11.27
2018-12-04T08:16:22.422Z,9.63
2018-12-04T08:18:50.935Z,11.97
2018-12-04T08:21:19.694Z,12.37
2018-12-04T08:23:49.022Z,10.27
2018-12-04T08:26:17.507Z,7.43
2018-12-04T08:28:45.978Z,10.77
2018-12-04T08:31:14.519Z,8.63
2018-12-04T08:33:43.050Z,7.93
2018-12-04T08:36:11.525Z,10.87
2018-12-04T08:38:40.030Z,9.50
2018-12-04T08:41:08.482Z,8.37
2018-12-04T08:43:37.085Z,8.47
2018-12-04T08:46:05.532Z,8.30
2018-12-04T08:48:33.978Z,8.07
2018-12-04T08:51:02.429Z,4.60
2018-12-04T08:53:30.981Z,9.47
2018-12-04T08:55:59.474Z,5.07
2018-12-04T08:58:28.159Z,9.83
2018-12-04T09:00:56.772Z,7.97
2018-12-04T09:03:25.376Z,3.90
2018-12-04T09:05:53.977Z,7.20
2018-12-04T09:08:22.698Z,9.10
2018-12-04T09:10:51.520Z,11.33
2018-12-04T09:13:20.833Z,7.93
2018-12-04T09:15:49.492Z,5.27
2018-12-04T09:18:18.007Z,7.93
2018-12-04T09:20:46.731Z,8.17
2018-12-04T09:23:15.515Z,6.87
2018-12-04T09:25:44.192Z,6.07
2018-12-04T09:28:12.795Z,5.67
2018-12-04T09:30:41.357Z,7.60
2018-12-04T09:33:09.890Z,4.93
2018-12-04T09:35:38.459Z,5.93
2018-12-04T09:38:07.065Z,5.73
2018-12-04T09:40:35.635Z,7.33
2018-12-04T09:43:04.338Z,10.53
2018-12-04T09:45:33.005Z,9.93
2018-12-04T09:48:01.605Z,7.67
2018-12-04T09:50:30.128Z,7.37
2018-12-04T09:52:58.691Z,9.30
2018-12-04T09:55:27.241Z,7.60
2018-12-04T09:57:55.815Z,8.87
2018-12-04T10:00:24.403Z,10.80
2018-12-04T10:02:52.955Z,7.43
2018-12-04T10:05:21.494Z,7.43
2018-12-04T10:07:50.090Z,5.43
2018-12-04T10:10:18.699Z,7.63
2018-12-04T10:12:47.379Z,7.93
2018-12-04T10:15:16.085Z,6.70
2018-12-04T10:17:44.610Z,6.23
2018-12-04T10:20:14.022Z,8.53
2018-12-04T10:22:42.543Z,7.03
2018-12-04T10:25:11.166Z,5.83
2018-12-04T10:27:39.686Z,7.93
2018-12-04T10:30:09.964Z,5.30
2018-12-04T10:32:39.581Z,8.87
2018-12-04T10:35:08.161Z,5.60
2018-12-04T10:37:36.767Z,4.83
2018-12-04T10:40:07.116Z,3.13
2018-12-04T10:42:35.849Z,5.17
2018-12-04T10:45:04.336Z,5.53
2018-12-04T10:47:32.893Z,4.40
2018-12-04T10:50:01.412Z,7.80
2018-12-04T10:52:30.011Z,5.20
2018-12-04T10:54:59.559Z,4.53
2018-12-04T10:57:28.161Z,8.50
2018-12-04T10:59:56.802Z,5.60
2018-12-04T11:02:26.098Z,8.10
2018-12-04T11:04:54.578Z,8.77
2018-12-04T11:07:23.066Z,6.70
2018-12-04T11:09:51.561Z,8.93
2018-12-04T11:12:20.099Z,5.43
2018-12-04T11:14:48.653Z,6.47
2018-12-04T11:17:17.275Z,7.13
2018-12-04T11:19:45.806Z,5.63
2018-12-04T11:22:14.273Z,7.60
2018-12-04T11:24:42.858Z,11.43
2018-12-04T11:27:11.392Z,8.17
2018-12-04T11:29:39.916Z,4.87
2018-12-04T11:32:08.673Z,8.07
2018-12-04T11:34:37.173Z,9.60
2018-12-04T11:37:05.767Z,5.10
2018-12-04T11:39:34.271Z,5.37
2018-12-04T11:42:02.744Z,3.80
2018-12-04T11:44:31.221Z,5.87
2018-12-04T11:46:59.642Z,6.40
2018-12-04T11:49:28.118Z,6.97
2018-12-04T11:51:56.692Z,8.73
2018-12-04T11:54:25.303Z,6.73
2018-12-04T11:56:53.833Z,7.30
2018-12-04T11:59:22.360Z,8.40
2018-12-04T12:01:50.892Z,7.00
2018-12-04T12:04:19.404Z,6.17
2018-12-04T12:06:48.002Z,7.77
2018-12-04T12:09:16.499Z,3.30
2018-12-04T12:11:45.008Z,6.77
2018-12-04T12:14:13.566Z,6.50
2018-12-04T12:16:42.096Z,8.20
2018-12-04T12:19:10.598Z,8.00
2018-12-04T12:21:39.368Z,3.97
2018-12-04T12:24:07.838Z,8.70
2018-12-04T12:26:36.419Z,6.43
2018-12-04T12:29:05.059Z,4.33
2018-12-04T12:31:33.597Z,6.10
2018-12-04T12:34:02.098Z,5.83
2018-12-04T12:36:30.671Z,5.23
2018-12-04T12:38:59.148Z,8.70
2018-12-04T12:41:27.654Z,12.27
2018-12-04T12:46:27.784Z,8.63
2018-12-04T12:48:56.397Z,8.93
2018-12-04T12:51:24.952Z,7.00
2018-12-04T12:53:53.471Z,10.73
2018-12-04T12:56:22.075Z,5.10
2018-12-04T12:58:51.806Z,11.47
2018-12-04T13:01:20.430Z,10.33
2018-12-04T13:03:48.915Z,8.43
2018-12-04T13:06:17.521Z,9.67
2018-12-04T13:08:46.065Z,7.00
2018-12-04T13:11:14.594Z,6.87
2018-12-04T13:13:43.268Z,9.57
2018-12-04T13:16:11.801Z,6.60
2018-12-04T13:18:40.397Z,7.97
2018-12-04T13:21:08.874Z,8.07
2018-12-04T13:23:37.360Z,8.50
2018-12-04T13:26:09.796Z,4.80
2018-12-04T13:28:38.552Z,6.40
2018-12-04T13:31:07.163Z,6.13
2018-12-04T13:33:36.067Z,8.83
2018-12-04T13:36:04.730Z,9.13
2018-12-04T13:38:33.253Z,6.10
2018-12-04T13:41:01.833Z,6.30
2018-12-04T13:43:30.425Z,6.27
2018-12-04T13:45:58.980Z,8.77
2018-12-04T13:48:27.496Z,10.17
2018-12-04T13:50:56.098Z,7.10
2018-12-04T13:53:24.690Z,6.03
2018-12-04T13:55:53.277Z,8.33
2018-12-04T13:58:21.873Z,10.07
2018-12-04T14:00:50.536Z,8.73
2018-12-04T14:03:19.207Z,7.97
2018-12-04T14:05:47.768Z,7.50
2018-12-04T14:08:16.283Z,7.20
2018-12-04T14:10:44.805Z,7.23
2018-12-04T14:13:13.577Z,6.40
2018-12-04T14:15:43.222Z,11.17
2018-12-04T14:18:11.932Z,10.40
2018-12-04T14:20:42.624Z,5.77
2018-12-04T14:23:11.186Z,8.20
2018-12-04T14:25:39.840Z,7.07
2018-12-04T14:28:08.469Z,5.27
2018-12-04T14:30:37.142Z,10.37
2018-12-04T14:33:05.878Z,7.57
2018-12-04T14:35:34.532Z,7.70
2018-12-04T14:38:03.089Z,10.00
2018-12-04T14:40:32.078Z,5.63
2018-12-04T14:43:00.586Z,7.10
2018-12-04T14:45:29.162Z,8.17
2018-12-04T14:47:57.739Z,5.07
2018-12-04T14:50:26.392Z,4.90
2018-12-04T14:52:55.002Z,4.97
2018-12-04T14:55:23.631Z,8.10
2018-12-04T14:57:52.280Z,5.20
2018-12-04T15:00:20.925Z,5.13
2018-12-04T15:02:49.558Z,10.53
2018-12-04T15:05:18.074Z,4.30
2018-12-04T15:07:46.572Z,9.03
2018-12-04T15:10:15.233Z,10.23
2018-12-04T15:12:43.830Z,4.80
2018-12-04T15:15:12.426Z,9.50
2018-12-04T15:17:41.002Z,7.00
2018-12-04T15:20:09.479Z,10.73
2018-12-04T15:22:38.008Z,8.83
2018-12-04T15:25:06.565Z,9.27
2018-12-04T15:27:35.108Z,6.20
2018-12-04T15:30:03.721Z,7.70
2018-12-04T15:32:32.368Z,8.20
2018-12-04T15:35:01.250Z,11.03
2018-12-04T15:37:29.897Z,7.13
2018-12-04T15:39:58.633Z,15.40
2018-12-04T15:42:27.319Z,6.60
2018-12-04T15:44:55.950Z,10.00
2018-12-04T15:47:24.490Z,9.77
2018-12-04T15:49:53.036Z,9.23
2018-12-04T15:52:21.560Z,8.30
2018-12-04T15:54:50.027Z,5.53
2018-12-04T15:57:18.844Z,9.10
2018-12-04T15:59:47.778Z,11.37
2018-12-04T16:02:16.228Z,9.53
2018-12-04T16:04:44.751Z,9.10
2018-12-04T16:07:13.356Z,7.60
2018-12-04T16:09:41.940Z,3.77
2018-12-04T16:12:10.591Z,9.03
2018-12-04T16:14:39.186Z,8.10
2018-12-04T16:17:14.959Z,11.43
2018-12-04T16:19:38.457Z,7.50
2018-12-04T16:22:07.013Z,11.30
2018-12-04T16:24:35.621Z,8.07
2018-12-04T16:27:04.246Z,11.07
2018-12-04T16:29:33.132Z,8.90
2018-12-04T16:32:01.706Z,13.57
2018-12-04T16:34:30.473Z,12.50
2018-12-04T16:36:59.073Z,11.67
2018-12-04T16:39:27.687Z,12.00
2018-12-04T16:41:56.299Z,9.40
2018-12-04T16:44:24.915Z,9.47
2018-12-04T16:46:53.572Z,10.47
2018-12-04T16:49:22.222Z,9.93
2018-12-04T16:51:50.843Z,7.00
2018-12-04T16:54:19.493Z,10.27
2018-12-04T16:56:48.024Z,7.03
2018-12-04T16:59:16.691Z,10.83
2018-12-04T17:01:45.248Z,12.57
2018-12-04T17:04:13.796Z,20.33
2018-12-04T17:06:42.390Z,10.17
2018-12-04T17:09:11.080Z,8.30
2018-12-04T17:11:39.709Z,12.60
2018-12-04T17:14:08.284Z,8.43
2018-12-04T17:16:36.801Z,9.63
2018-12-04T17:19:05.583Z,18.00
2018-12-04T17:21:34.346Z,12.27
2018-12-04T17:24:03.019Z,14.03
2018-12-04T17:26:31.600Z,12.00
2018-12-04T17:29:00.138Z,11.40
2018-12-04T17:31:28.682Z,13.43
2018-12-04T17:33:57.288Z,9.13
2018-12-04T17:36:25.833Z,12.17
2018-12-04T17:38:54.405Z,14.87
2018-12-04T17:41:23.035Z,11.20
2018-12-04T17:43:51.759Z,16.33
2018-12-04T17:46:20.244Z,13.23
2018-12-04T17:48:48.941Z,9.80
2018-12-04T17:51:17.566Z,17.37
2018-12-04T17:53:46.337Z,12.10
2018-12-04T17:56:14.999Z,19.03
2018-12-04T17:58:43.818Z,13.70
2018-12-04T18:01:12.567Z,13.07
2018-12-04T18:03:41.193Z,15.00
2018-12-04T18:06:09.741Z,15.93
2018-12-04T18:08:38.258Z,16.63
2018-12-04T18:11:06.851Z,17.03
2018-12-04T18:13:35.390Z,12.07
2018-12-04T18:16:03.932Z,13.20
2018-12-04T18:18:32.508Z,15.20
2018-12-04T18:21:01.223Z,13.40
2018-12-04T18:23:29.693Z,14.63
2018-12-04T18:25:58.326Z,14.07
2018-12-04T18:28:26.862Z,13.40
2018-12-04T18:30:55.327Z,16.37
2018-12-04T18:33:24.002Z,17.77
2018-12-04T18:35:52.630Z,23.40
2018-12-04T18:38:21.352Z,15.57
2018-12-04T18:40:49.860Z,12.60
2018-12-04T18:43:18.444Z,12.27
2018-12-04T18:45:47.004Z,15.27
2018-12-04T18:48:15.518Z,17.87
2018-12-04T18:50:44.134Z,16.03
2018-12-04T18:53:12.695Z,18.77
2018-12-04T18:55:41.343Z,18.90
2018-12-04T18:58:09.858Z,16.70
2018-12-04T19:00:38.453Z,19.00
2018-12-04T19:03:07.096Z,14.60
2018-12-04T19:05:35.638Z,17.80
2018-12-04T19:08:04.196Z,15.67
2018-12-04T19:10:32.789Z,19.53
2018-12-04T19:13:02.324Z,20.83
2018-12-04T19:15:30.869Z,21.80
2018-12-04T19:17:59.412Z,16.23
2018-12-04T19:20:28.032Z,13.37
2018-12-04T19:22:56.571Z,15.03
2018-12-04T19:25:25.161Z,28.30
2018-12-04T19:27:53.897Z,15.40
2018-12-04T19:30:22.423Z,19.03
2018-12-04T19:32:50.935Z,14.03
2018-12-04T19:35:19.568Z,17.23
2018-12-04T19:37:48.066Z,14.43
2018-12-04T19:40:16.687Z,17.80
2018-12-04T19:42:45.570Z,18.10
2018-12-04T19:45:14.406Z,22.23
2018-12-04T19:47:42.957Z,27.73
2018-12-04T19:50:11.575Z,20.10
2018-12-04T19:52:40.502Z,17.47
2018-12-04T19:55:09.119Z,24.40
2018-12-04T19:57:37.765Z,20.90
2018-12-04T20:00:08.211Z,21.50
2018-12-04T20:02:36.807Z,13.90
2018-12-04T20:05:05.416Z,14.93
2018-12-04T20:07:33.933Z,18.13
2018-12-04T20:10:02.856Z,18.40
2018-12-04T20:12:31.487Z,15.87
2018-12-04T20:15:00.189Z,15.70
2018-12-04T20:17:28.640Z,20.70
2018-12-04T20:19:57.223Z,22.77
2018-12-04T20:22:25.809Z,17.27
2018-12-04T20:24:54.393Z,19.93
2018-12-04T20:27:23.124Z,16.97
2018-12-04T20:29:51.651Z,21.07
2018-12-04T20:32:20.210Z,16.73
2018-12-04T20:34:48.716Z,19.77
2018-12-04T20:37:17.450Z,14.80
2018-12-04T20:39:46.090Z,16.30
2018-12-04T20:42:14.864Z,17.17
2018-12-04T20:44:43.368Z,15.33
2018-12-04T20:47:11.980Z,19.07
2018-12-04T20:49:40.754Z,20.13
2018-12-04T20:52:09.619Z,15.27
2018-12-04T20:54:38.122Z,17.03
2018-12-04T20:57:06.794Z,14.33
2018-12-04T20:59:35.314Z,13.80
2018-12-04T21:02:04.074Z,13.00
2018-12-04T21:04:32.600Z,17.17
2018-12-04T21:07:01.165Z,18.47
2018-12-04T21:09:29.708Z,14.37
2018-12-04T21:11:58.260Z,13.60
2018-12-04T21:14:26.794Z,15.67
2018-12-04T21:16:55.285Z,13.67
2018-12-04T21:19:23.756Z,19.03
2018-12-04T21:21:52.479Z,15.93
2018-12-04T21:24:20.965Z,23.93
2018-12-04T21:26:57.079Z,14.03
2018-12-04T21:29:31.430Z,11.20
2018-12-04T21:32:05.461Z,14.93
2018-12-04T21:34:39.415Z,18.20
2018-12-04T21:37:13.170Z,15.80
2018-12-04T21:39:44.176Z,14.57
2018-12-04T21:42:17.862Z,19.33
2018-12-04T21:44:51.556Z,16.20
2018-12-04T21:47:25.139Z,13.97
2018-12-04T21:49:53.617Z,16.43
2018-12-04T21:52:22.223Z,15.77
2018-12-04T21:54:50.694Z,13.77
2018-12-04T21:57:19.192Z,15.30
2018-12-04T21:59:47.719Z,16.23
2018-12-04T22:02:16.209Z,13.53
2018-12-04T22:04:45.068Z,13.37
2018-12-04T22:07:13.877Z,13.03
2018-12-04T22:09:42.318Z,19.90
2018-12-04T22:12:10.825Z,13.77
2018-12-04T22:14:39.264Z,12.90
2018-12-04T22:17:07.843Z,17.10
2018-12-04T22:19:36.320Z,14.03
2018-12-04T22:22:04.892Z,12.67
2018-12-04T22:24:33.458Z,16.07
2018-12-04T22:27:01.940Z,14.77
2018-12-04T22:29:30.444Z,12.43
2018-12-04T22:31:59.012Z,14.27
2018-12-04T22:34:27.523Z,14.63
2018-12-04T22:36:56.081Z,10.87
2018-12-04T22:39:24.616Z,12.57
2018-12-04T22:41:53.090Z,13.07
2018-12-04T22:44:21.642Z,15.93
2018-12-04T22:46:50.115Z,14.87
2018-12-04T22:49:18.561Z,13.17
2018-12-04T22:51:47.061Z,18.50
2018-12-04T22:54:15.572Z,13.37
2018-12-04T22:56:44.041Z,12.37
2018-12-04T22:59:12.550Z,12.00
2018-12-04T23:01:41.925Z,11.97
2018-12-04T23:04:10.544Z,16.30
2018-12-04T23:06:39.049Z,13.30
2018-12-04T23:09:10.341Z,14.97
2018-12-04T23:11:39.189Z,12.53
2018-12-04T23:14:07.868Z,14.83
2018-12-04T23:16:36.437Z,12.97
2018-12-04T23:19:05.070Z,13.07
2018-12-04T23:21:33.550Z,24.50
2018-12-04T23:24:02.059Z,11.53
2018-12-04T23:26:30.693Z,15.87
2018-12-04T23:28:59.191Z,14.57
2018-12-04T23:31:27.647Z,11.67
2018-12-04T23:33:56.213Z,20.33
2018-12-04T23:36:24.703Z,14.07
2018-12-04T23:38:53.249Z,13.80
2018-12-04T23:41:21.769Z,16.33
2018-12-04T23:43:50.498Z,12.77
2018-12-04T23:46:18.989Z,12.60
2018-12-04T23:48:47.569Z,12.83
2018-12-04T23:51:16.101Z,15.93
2018-12-04T23:53:44.580Z,12.53
2018-12-04T23:56:13.071Z,15.70
2018-12-04T23:58:41.625Z,13.23
